Estación de Morza

Ultimos registro cada 15 minutos 80
Estación Fecha / Hora Temperatura Humedad Lluvia Velocidad Dirección Radiación Presion
80 Morza 02-05-2026 19:45 10,4 89 0 0 142 0 1016,2
79 Morza 02-05-2026 19:30 10,7 87 0 0 148 0 1016,4
78 Morza 02-05-2026 19:15 11,3 83 0 0 223 0 1016,3
77 Morza 02-05-2026 19:00 12,2 82 0 0,4 140 0 1015,5
76 Morza 02-05-2026 18:45 13 79 0 0 162 0 1015,2
75 Morza 02-05-2026 18:30 14,3 76 0 0 278 0 1015,2
74 Morza 02-05-2026 18:15 15,8 71 0 0 278 0 1014,7
73 Morza 02-05-2026 18:00 17,6 66 0 0 278 0 1014,5
72 Morza 02-05-2026 17:45 19,2 60 0 0 278 9 1014,4
71 Morza 02-05-2026 17:30 19,7 61 0 0 278 18 1014,4
70 Morza 02-05-2026 17:15 19,6 61 0 0 278 46 1014,5
69 Morza 02-05-2026 17:00 19,4 61 0 0,4 290 83 1014,5
68 Morza 02-05-2026 16:45 19,1 59 0 0,9 311 125 1014,4
67 Morza 02-05-2026 16:30 18,6 63 0 0,4 275 169 1014,4
66 Morza 02-05-2026 16:15 18,7 63 0 1,8 271 207 1014,5
65 Morza 02-05-2026 16:00 18,8 63 0 1,8 287 243 1014,5
64 Morza 02-05-2026 15:45 18,9 64 0 1,8 316 279 1014,4
63 Morza 02-05-2026 15:30 18,6 66 0 0 310 309 1014,6
62 Morza 02-05-2026 15:15 18,3 68 0 1,8 330 341 1014,3
61 Morza 02-05-2026 15:00 17,9 68 0 0,4 263 367 1014,2
60 Morza 02-05-2026 14:45 17 73 0 0,9 62 394 1014,1
59 Morza 02-05-2026 14:30 16,8 76 0 0,9 74 411 1014,3
58 Morza 02-05-2026 14:15 16,1 76 0 0,4 48 434 1014,4
57 Morza 02-05-2026 14:00 15,2 81 0 0,4 55 454 1014,7
56 Morza 02-05-2026 13:45 14,6 83 0 0 65 469 1014,8
55 Morza 02-05-2026 13:30 13,8 88 0 0,9 19 483 1015
54 Morza 02-05-2026 13:15 12,6 91 0 0,4 1 496 1015,2
53 Morza 02-05-2026 13:00 11,5 95 0 0,4 255 494 1015,7
52 Morza 02-05-2026 12:45 10,3 97 0 0 291 584 1015,8
51 Morza 02-05-2026 12:30 9,7 97 0 0 227 253 1016,2
50 Morza 02-05-2026 12:15 9,3 97 0 1,8 330 229 1016,3
49 Morza 02-05-2026 12:00 9,1 97 0 0,4 334 179 1016,5
48 Morza 02-05-2026 11:45 9 97 0 0 39 179 1016,7
47 Morza 02-05-2026 11:30 8,7 97 0 0,4 32 155 1016,9
46 Morza 02-05-2026 11:15 8,3 97 0 0,4 318 156 1016,9
45 Morza 02-05-2026 11:00 8,2 97 0 0,4 196 139 1017
44 Morza 02-05-2026 10:45 8 97 0 0,9 262 125 1017
43 Morza 02-05-2026 10:30 7,9 96 0 0,9 281 116 1017,3
42 Morza 02-05-2026 10:15 7,8 96 0 0,9 309 95 1017,3
41 Morza 02-05-2026 10:00 8 96 0 0 273 91 1017,4
40 Morza 02-05-2026 09:45 8,1 96 0 0 202 81 1017,3
39 Morza 02-05-2026 09:30 8,1 96 0 0,4 240 77 1017,1
38 Morza 02-05-2026 09:15 8,1 96 0 0 274 47 1017,3
37 Morza 02-05-2026 09:00 8 96 0 0 287 49 1017,4
36 Morza 02-05-2026 08:45 8 96 0 0,9 270 37 1017,4
35 Morza 02-05-2026 08:30 8 96 0 0,4 336 25 1017,3
34 Morza 02-05-2026 08:15 8,1 97 0 0,4 189 21 1017,1
33 Morza 02-05-2026 08:00 8 97 0 0 189 12 1017,2
32 Morza 02-05-2026 07:45 7,8 96 0 0 245 7 1017
31 Morza 02-05-2026 07:30 7,8 96 0 0 245 0 1016,9
30 Morza 02-05-2026 07:15 7,7 96 0 0 245 0 1016,7
29 Morza 02-05-2026 07:00 7,7 96 0 0 245 0 1016,7
28 Morza 02-05-2026 06:45 7,7 96 0 0 245 0 1016,8
27 Morza 02-05-2026 06:30 7,8 96 0,2 0 245 0 1017
26 Morza 02-05-2026 06:15 7,8 96 0 0 231 0 1017,1
25 Morza 02-05-2026 06:00 7,8 96 0 0 231 0 1017
24 Morza 02-05-2026 05:45 7,7 96 0 0 247 0 1017,2
23 Morza 02-05-2026 05:30 7,6 96 0 0,4 264 0 1017,3
22 Morza 02-05-2026 05:15 7,5 96 0 0 264 0 1017,3
21 Morza 02-05-2026 05:00 7,6 96 0 0 264 0 1017,5
20 Morza 02-05-2026 04:45 7,7 96 0 0 264 0 1017,6
19 Morza 02-05-2026 04:30 8,2 96 0 0 292 0 1017,6
18 Morza 02-05-2026 04:15 8,4 97 0 0 208 0 1017,7
17 Morza 02-05-2026 04:00 8,2 96 0 0 208 0 1018
16 Morza 02-05-2026 03:45 8 96 0 0 208 0 1018
15 Morza 02-05-2026 03:30 7,8 97 0 0 208 0 1018,1
14 Morza 02-05-2026 03:15 7,5 96 0 0 211 0 1018,1
13 Morza 02-05-2026 03:00 7,2 96 0 0 211 0 1018,2
12 Morza 02-05-2026 02:45 6,9 96 0 0 211 0 1018,2
11 Morza 02-05-2026 02:30 6,4 96 0 0 211 0 1018,6
10 Morza 02-05-2026 02:15 5,9 96 0 0 211 0 1018,4
9 Morza 02-05-2026 02:00 5,7 95 0 0 211 0 1018,5
8 Morza 02-05-2026 01:45 5,8 95 0 0 211 0 1018,5
7 Morza 02-05-2026 01:30 5,7 94 0 0 211 0 1018,8
6 Morza 02-05-2026 01:15 5,9 94 0 0 211 0 1019,1
5 Morza 02-05-2026 01:00 6,6 95 0 0,4 211 0 1019,4
4 Morza 02-05-2026 00:45 6,8 94 0 0 211 0 1019,6
3 Morza 02-05-2026 00:30 6,9 94 0 0 211 0 1019,8
2 Morza 02-05-2026 00:15 7,2 94 0 0 211 0 1020
1 Morza 02-05-2026 00:00 7,4 94 0 0 211 0 1020,1